createdAt,value
2022-12-11T00:00:40.010Z,15.73
2022-12-11T00:03:12.750Z,15.40
2022-12-11T00:05:45.872Z,15.60
2022-12-11T00:08:14.080Z,13.17
2022-12-11T00:10:48.613Z,16.23
2022-12-11T00:13:16.405Z,13.57
2022-12-11T00:15:44.108Z,14.47
2022-12-11T00:18:13.674Z,14.80
2022-12-11T00:20:41.510Z,14.53
2022-12-11T00:23:10.832Z,15.27
2022-12-11T00:25:42.501Z,14.20
2022-12-11T00:28:10.278Z,14.27
2022-12-11T00:30:39.934Z,16.20
2022-12-11T00:33:08.053Z,14.47
2022-12-11T00:35:39.105Z,14.63
2022-12-11T00:38:06.857Z,14.17
2022-12-11T00:40:36.702Z,11.80
2022-12-11T00:43:05.131Z,14.03
2022-12-11T00:45:37.979Z,15.13
2022-12-11T00:48:06.512Z,15.87
2022-12-11T00:50:34.852Z,12.83
2022-12-11T00:53:03.017Z,12.87
2022-12-11T00:55:30.807Z,12.80
2022-12-11T00:57:59.769Z,12.90
2022-12-11T01:00:28.846Z,14.93
2022-12-11T01:02:56.503Z,11.67
2022-12-11T01:05:24.277Z,13.20
2022-12-11T01:07:52.340Z,13.77
2022-12-11T01:10:25.533Z,12.67
2022-12-11T01:12:55.409Z,14.83
2022-12-11T01:15:27.119Z,13.60
2022-12-11T01:17:55.069Z,14.70
2022-12-11T01:20:25.142Z,13.03
2022-12-11T01:22:54.043Z,14.67
2022-12-11T01:25:21.854Z,15.20
2022-12-11T01:27:52.121Z,14.20
2022-12-11T01:30:21.049Z,13.63
2022-12-11T01:32:50.481Z,14.63
2022-12-11T01:35:18.837Z,12.77
2022-12-11T01:37:46.902Z,14.17
2022-12-11T01:40:16.463Z,13.30
2022-12-11T01:42:44.131Z,11.37
2022-12-11T01:45:28.733Z,13.57
2022-12-11T01:48:02.942Z,13.37
2022-12-11T01:50:33.911Z,13.33
2022-12-11T01:53:02.215Z,13.83
2022-12-11T01:55:30.064Z,12.30
2022-12-11T01:57:57.759Z,13.07
2022-12-11T02:00:25.439Z,13.07
2022-12-11T02:02:53.137Z,12.77
2022-12-11T02:05:22.273Z,12.57
2022-12-11T02:07:53.622Z,11.90
2022-12-11T02:10:29.454Z,12.77
2022-12-11T02:13:01.694Z,12.57
2022-12-11T02:15:35.337Z,13.93
2022-12-11T02:18:15.532Z,13.23
2022-12-11T02:20:50.078Z,13.30
2022-12-11T02:23:38.569Z,12.33
2022-12-11T02:26:21.632Z,12.70
2022-12-11T02:28:55.116Z,14.87
2022-12-11T02:31:28.915Z,12.87
2022-12-11T02:34:03.540Z,13.00
2022-12-11T02:36:36.274Z,12.53
2022-12-11T02:39:06.970Z,11.93
2022-12-11T02:41:35.962Z,11.53
2022-12-11T02:44:05.648Z,14.57
2022-12-11T02:46:35.679Z,11.87
2022-12-11T02:49:06.096Z,12.10
2022-12-11T02:51:37.310Z,13.70
2022-12-11T02:54:08.325Z,13.47
2022-12-11T02:56:42.445Z,11.23
2022-12-11T02:59:17.111Z,13.27
2022-12-11T03:01:44.955Z,11.73
2022-12-11T03:04:13.037Z,12.37
2022-12-11T03:06:44.688Z,11.40
2022-12-11T03:09:12.391Z,12.17
2022-12-11T03:11:40.121Z,11.80
2022-12-11T03:14:08.943Z,11.97
2022-12-11T03:16:40.288Z,11.67
2022-12-11T03:19:17.858Z,11.53
2022-12-11T03:21:49.746Z,10.70
2022-12-11T03:24:22.215Z,9.93
2022-12-11T03:26:56.849Z,10.53
2022-12-11T03:29:31.175Z,11.50
2022-12-11T03:32:06.952Z,10.03
2022-12-11T03:34:42.043Z,11.47
2022-12-11T03:37:12.406Z,10.07
2022-12-11T03:39:44.641Z,11.30
2022-12-11T03:42:16.377Z,9.73
2022-12-11T03:44:48.753Z,12.57
2022-12-11T03:47:23.210Z,11.30
2022-12-11T03:49:52.254Z,12.07
2022-12-11T03:52:23.500Z,12.40
2022-12-11T03:54:52.517Z,12.77
2022-12-11T03:57:26.731Z,13.10
2022-12-11T03:59:54.457Z,12.53
2022-12-11T04:02:23.545Z,10.90
2022-12-11T04:04:51.304Z,12.10
2022-12-11T04:07:19.424Z,10.90
2022-12-11T04:09:47.117Z,10.93
2022-12-11T04:12:14.909Z,12.30
2022-12-11T04:15:00.386Z,12.60
2022-12-11T04:17:47.283Z,10.87
2022-12-11T04:20:32.669Z,13.67
2022-12-11T04:23:17.806Z,12.73
2022-12-11T04:25:45.662Z,11.67
2022-12-11T04:28:13.305Z,12.97
2022-12-11T04:30:41.010Z,12.60
2022-12-11T04:33:10.010Z,11.93
2022-12-11T04:35:37.684Z,13.23
2022-12-11T04:38:05.808Z,13.03
2022-12-11T04:40:33.524Z,12.80
2022-12-11T04:43:01.532Z,11.80
2022-12-11T04:45:29.190Z,13.23
2022-12-11T04:47:56.855Z,12.23
2022-12-11T04:50:26.584Z,11.00
2022-12-11T04:52:55.873Z,9.57
2022-12-11T04:55:24.368Z,13.43
2022-12-11T04:57:52.077Z,11.57
2022-12-11T05:00:19.972Z,9.63
2022-12-11T05:02:47.641Z,13.30
2022-12-11T05:05:15.392Z,12.83
2022-12-11T05:07:44.553Z,11.60
2022-12-11T05:10:12.198Z,12.70
2022-12-11T05:12:39.927Z,13.50
2022-12-11T05:15:08.961Z,14.17
2022-12-11T05:17:36.828Z,13.80
2022-12-11T05:20:05.170Z,14.43
2022-12-11T05:22:33.225Z,13.13
2022-12-11T05:25:02.233Z,13.00
2022-12-11T05:27:29.936Z,15.03
2022-12-11T05:29:59.589Z,12.97
2022-12-11T05:32:27.845Z,14.03
2022-12-11T05:34:55.512Z,13.97
2022-12-11T05:37:23.334Z,13.73
2022-12-11T05:39:51.294Z,13.13
2022-12-11T05:42:24.076Z,13.73
2022-12-11T05:44:56.276Z,12.83
2022-12-11T05:47:23.943Z,14.07
2022-12-11T05:49:54.148Z,13.30
2022-12-11T05:52:22.015Z,13.67
2022-12-11T05:54:50.649Z,13.70
2022-12-11T05:57:19.700Z,11.73
2022-12-11T05:59:49.449Z,12.23
2022-12-11T06:02:17.190Z,14.17
2022-12-11T06:04:44.943Z,12.33
2022-12-11T06:07:12.736Z,13.40
2022-12-11T06:09:40.386Z,13.23
2022-12-11T06:12:08.203Z,13.10
2022-12-11T06:14:37.216Z,11.17
2022-12-11T06:17:04.903Z,13.17
2022-12-11T06:19:36.795Z,14.67
2022-12-11T06:22:05.032Z,14.23
2022-12-11T06:24:32.781Z,13.17
2022-12-11T06:27:00.508Z,14.27
2022-12-11T06:29:28.243Z,13.30
2022-12-11T06:31:57.288Z,13.00
2022-12-11T06:34:26.167Z,11.50
2022-12-11T06:36:53.909Z,12.43
2022-12-11T06:39:21.609Z,13.03
2022-12-11T06:41:49.359Z,12.77
2022-12-11T06:44:17.039Z,11.30
2022-12-11T06:46:44.856Z,10.87
2022-12-11T06:49:14.006Z,13.50
2022-12-11T06:51:41.740Z,12.33
2022-12-11T06:54:09.420Z,12.67
2022-12-11T06:56:37.140Z,11.37
2022-12-11T06:59:07.483Z,12.57
2022-12-11T07:01:35.447Z,13.20
2022-12-11T07:04:03.255Z,11.63
2022-12-11T07:06:32.278Z,15.03
2022-12-11T07:08:59.904Z,13.40
2022-12-11T07:11:27.731Z,13.37
2022-12-11T07:13:55.430Z,13.00
2022-12-11T07:16:24.203Z,13.20
2022-12-11T07:18:52.875Z,13.13
2022-12-11T07:21:21.512Z,12.20
2022-12-11T07:23:51.691Z,13.73
2022-12-11T07:26:21.967Z,12.87
2022-12-11T07:28:50.002Z,13.83
2022-12-11T07:31:21.800Z,12.63
2022-12-11T07:33:54.182Z,12.20
2022-12-11T07:36:21.996Z,15.40
2022-12-11T07:38:51.083Z,13.10
2022-12-11T07:41:19.255Z,13.73
2022-12-11T07:43:48.711Z,14.70
2022-12-11T07:46:18.616Z,14.20
2022-12-11T07:48:47.819Z,13.00
2022-12-11T07:51:17.448Z,14.40
2022-12-11T07:53:46.542Z,15.20
2022-12-11T07:56:16.102Z,13.40
2022-12-11T07:58:44.036Z,15.03
2022-12-11T08:01:14.181Z,13.87
2022-12-11T08:03:42.075Z,14.63
2022-12-11T08:06:11.845Z,13.03
2022-12-11T08:08:39.744Z,13.10
2022-12-11T08:11:12.023Z,12.97
2022-12-11T08:13:42.000Z,13.50
2022-12-11T08:16:13.071Z,14.87
2022-12-11T08:18:42.875Z,9.43
2022-12-11T08:21:12.585Z,11.77
2022-12-11T08:23:40.456Z,15.13
2022-12-11T08:26:10.125Z,13.33
2022-12-11T08:28:38.465Z,15.00
2022-12-11T08:31:09.532Z,13.90
2022-12-11T08:33:38.756Z,14.17
2022-12-11T08:36:08.420Z,13.47
2022-12-11T08:38:37.030Z,14.90
2022-12-11T08:41:09.719Z,14.77
2022-12-11T08:43:38.361Z,15.93
2022-12-11T08:46:07.958Z,14.77
2022-12-11T08:48:36.602Z,16.37
2022-12-11T08:51:06.952Z,14.57
2022-12-11T08:53:35.633Z,14.33
2022-12-11T08:56:04.382Z,11.23
2022-12-11T08:58:32.081Z,10.30
2022-12-11T09:01:00.111Z,11.07
2022-12-11T09:03:29.252Z,11.93
2022-12-11T09:05:56.917Z,14.43
2022-12-11T09:08:24.678Z,9.37
2022-12-11T09:10:53.985Z,12.33
2022-12-11T09:13:24.155Z,14.00
2022-12-11T09:15:51.883Z,14.07
2022-12-11T09:18:21.937Z,14.07
2022-12-11T09:20:59.226Z,14.23
2022-12-11T09:23:26.968Z,14.00
2022-12-11T09:25:54.798Z,13.30
2022-12-11T09:28:23.573Z,14.53
2022-12-11T09:30:51.781Z,12.47
2022-12-11T09:33:19.708Z,15.80
2022-12-11T09:35:47.514Z,12.93
2022-12-11T09:38:17.168Z,15.10
2022-12-11T09:40:44.919Z,12.60
2022-12-11T09:43:23.478Z,12.60
2022-12-11T09:45:52.243Z,14.50
2022-12-11T09:48:23.891Z,13.47
2022-12-11T09:50:54.813Z,12.97
2022-12-11T09:53:33.766Z,12.67
2022-12-11T09:56:10.701Z,12.73
2022-12-11T09:58:57.741Z,13.20
2022-12-11T10:01:37.068Z,10.80
2022-12-11T10:04:23.006Z,12.07
2022-12-11T10:07:02.233Z,13.77
2022-12-11T10:09:39.988Z,10.33
2022-12-11T10:12:23.982Z,12.13
2022-12-11T10:15:05.872Z,11.23
2022-12-11T10:17:37.557Z,10.33
2022-12-11T10:20:18.411Z,10.17
2022-12-11T10:22:47.760Z,10.27
2022-12-11T10:25:22.290Z,11.77
2022-12-11T10:27:50.837Z,10.93
2022-12-11T10:30:20.862Z,8.13
2022-12-11T10:32:53.337Z,9.00
2022-12-11T10:35:33.248Z,10.17
2022-12-11T10:38:12.480Z,12.37
2022-12-11T10:40:45.111Z,12.30
2022-12-11T10:43:13.391Z,11.43
2022-12-11T10:45:41.315Z,16.30
2022-12-11T10:48:13.124Z,12.67
2022-12-11T10:50:41.141Z,13.77
2022-12-11T10:53:21.760Z,12.93
2022-12-11T10:55:51.604Z,12.37
2022-12-11T10:58:21.634Z,14.07
2022-12-11T11:01:01.447Z,13.07
2022-12-11T11:03:29.782Z,15.73
2022-12-11T11:06:15.248Z,14.90
2022-12-11T11:08:45.452Z,12.97
2022-12-11T11:11:27.908Z,13.90
2022-12-11T11:14:07.467Z,15.30
2022-12-11T11:16:38.238Z,14.63
2022-12-11T11:19:06.637Z,14.43
2022-12-11T11:21:36.228Z,13.77
2022-12-11T11:24:04.673Z,12.37
2022-12-11T11:27:04.683Z,11.93
2022-12-11T11:29:29.669Z,10.23
2022-12-11T11:31:57.888Z,12.00
2022-12-11T11:34:26.121Z,11.10
2022-12-11T11:36:58.694Z,11.50
2022-12-11T11:39:33.492Z,11.50
2022-12-11T11:42:11.186Z,10.97
2022-12-11T11:44:45.927Z,11.03
2022-12-11T11:47:18.387Z,8.97
2022-12-11T11:49:54.533Z,9.40
2022-12-11T11:52:33.206Z,9.30
2022-12-11T11:55:10.610Z,9.03
2022-12-11T11:57:49.470Z,9.93
2022-12-11T12:00:22.241Z,10.10
2022-12-11T12:02:55.743Z,10.33
2022-12-11T12:05:28.923Z,10.97
2022-12-11T12:08:09.538Z,11.20
2022-12-11T12:10:45.110Z,10.53
2022-12-11T12:13:48.067Z,9.73
2022-12-11T12:16:50.495Z,9.77
2022-12-11T12:19:15.233Z,8.90
2022-12-11T12:21:48.240Z,10.77
2022-12-11T12:24:24.332Z,9.97
2022-12-11T12:26:58.659Z,10.87
2022-12-11T12:29:44.544Z,9.97
2022-12-11T12:32:22.269Z,10.80
2022-12-11T12:35:04.878Z,10.30
2022-12-11T12:37:47.178Z,9.77
2022-12-11T12:40:26.182Z,9.23
2022-12-11T12:43:04.472Z,10.87
2022-12-11T12:45:41.065Z,8.43
2022-12-11T12:48:10.090Z,8.37
2022-12-11T12:50:43.214Z,9.67
2022-12-11T12:53:17.275Z,8.40
2022-12-11T12:55:46.854Z,9.33
2022-12-11T12:58:29.698Z,9.53
2022-12-11T13:01:11.534Z,10.30
2022-12-11T13:03:52.871Z,10.53
2022-12-11T13:06:33.005Z,9.57
2022-12-11T13:09:19.607Z,8.93
2022-12-11T13:11:53.810Z,9.10
2022-12-11T13:14:31.238Z,9.70
2022-12-11T13:17:25.572Z,10.73
2022-12-11T13:20:12.412Z,10.77
2022-12-11T13:22:50.734Z,10.03
2022-12-11T13:25:23.126Z,9.73
2022-12-11T13:27:51.005Z,10.47
2022-12-11T13:30:24.431Z,8.80
2022-12-11T13:33:03.361Z,10.67
2022-12-11T13:35:32.834Z,10.70
2022-12-11T13:38:06.968Z,12.10
2022-12-11T13:40:40.130Z,12.93
2022-12-11T13:43:17.863Z,12.10
2022-12-11T13:45:49.934Z,12.97
2022-12-11T13:48:24.585Z,10.83
2022-12-11T13:50:54.248Z,12.47
2022-12-11T13:53:22.647Z,11.87
2022-12-11T13:55:57.828Z,11.33
2022-12-11T13:58:25.716Z,10.60
2022-12-11T14:01:08.502Z,11.63
2022-12-11T14:03:40.751Z,12.03
2022-12-11T14:06:16.565Z,13.57
2022-12-11T14:08:51.037Z,11.27
2022-12-11T14:11:23.567Z,11.83
2022-12-11T14:13:52.201Z,12.23
2022-12-11T14:16:24.458Z,11.03
2022-12-11T14:18:55.584Z,12.33
2022-12-11T14:21:25.375Z,11.90
2022-12-11T14:23:55.365Z,13.20
2022-12-11T14:26:25.031Z,9.70
2022-12-11T14:28:53.004Z,12.13
2022-12-11T14:31:27.728Z,13.60
2022-12-11T14:34:00.606Z,12.37
2022-12-11T14:36:29.841Z,11.13
2022-12-11T14:39:03.388Z,11.40
2022-12-11T14:41:41.745Z,11.77
2022-12-11T14:44:16.524Z,11.33
2022-12-11T14:47:12.669Z,12.17
2022-12-11T14:50:22.631Z,11.33
2022-12-11T15:04:47.911Z,13.80
2022-12-11T15:11:17.692Z,12.17
2022-12-11T15:14:33.238Z,14.63
2022-12-11T15:17:52.716Z,17.73
2022-12-11T15:20:52.676Z,17.40
2022-12-11T15:24:01.086Z,17.80
2022-12-11T15:26:36.840Z,18.43
2022-12-11T15:29:08.778Z,18.27
2022-12-11T15:31:36.493Z,21.17
2022-12-11T15:34:04.292Z,19.30
2022-12-11T15:36:34.568Z,20.40
2022-12-11T15:39:03.227Z,22.07
2022-12-11T15:41:33.215Z,24.10
2022-12-11T15:44:04.534Z,25.80
2022-12-11T15:46:37.193Z,29.83
2022-12-11T15:49:12.448Z,30.67
2022-12-11T15:51:43.131Z,28.80
2022-12-11T15:54:11.490Z,29.73
2022-12-11T15:56:39.946Z,25.70
2022-12-11T15:59:11.180Z,28.13
2022-12-11T16:01:38.910Z,27.07
2022-12-11T16:04:06.792Z,27.40
2022-12-11T16:06:35.034Z,26.87
2022-12-11T16:09:05.000Z,26.13
2022-12-11T16:11:32.835Z,21.53
2022-12-11T16:14:03.355Z,20.33
2022-12-11T16:16:33.258Z,19.43
2022-12-11T16:19:01.395Z,19.00
2022-12-11T16:21:31.609Z,18.77
2022-12-11T16:23:59.393Z,16.97
2022-12-11T16:26:27.592Z,16.53
2022-12-11T16:28:55.222Z,19.40
2022-12-11T16:31:22.976Z,19.93
2022-12-11T16:33:52.012Z,18.27
2022-12-11T16:36:21.420Z,18.90
2022-12-11T16:38:53.896Z,18.27
2022-12-11T16:41:22.722Z,19.23
2022-12-11T16:43:50.680Z,17.57
2022-12-11T16:46:19.096Z,17.87
2022-12-11T16:48:47.423Z,18.83
2022-12-11T16:51:17.888Z,19.17
2022-12-11T16:53:45.993Z,17.23
2022-12-11T16:56:13.877Z,17.03
2022-12-11T16:58:41.677Z,17.13
2022-12-11T17:01:12.073Z,17.40
2022-12-11T17:03:40.700Z,16.73
2022-12-11T17:06:09.618Z,20.27
2022-12-11T17:08:39.002Z,18.33
2022-12-11T17:11:07.785Z,19.20
2022-12-11T17:13:36.445Z,18.63
2022-12-11T17:16:06.277Z,17.30
2022-12-11T17:18:34.742Z,19.97
2022-12-11T17:21:06.880Z,26.40
2022-12-11T17:23:35.056Z,25.53
2022-12-11T17:26:04.440Z,20.07
2022-12-11T17:28:32.953Z,18.50
2022-12-11T17:31:00.891Z,19.33
2022-12-11T17:33:28.690Z,20.67
2022-12-11T17:35:57.159Z,18.97
2022-12-11T17:38:24.847Z,20.33
2022-12-11T17:40:52.494Z,19.87
2022-12-11T17:43:21.568Z,17.97
2022-12-11T17:45:52.425Z,19.77
2022-12-11T17:48:22.360Z,19.33
2022-12-11T17:50:52.393Z,18.13
2022-12-11T17:53:21.473Z,18.33
2022-12-11T17:55:52.023Z,19.07
2022-12-11T17:58:23.380Z,18.67
2022-12-11T18:00:54.275Z,21.10
2022-12-11T18:03:23.113Z,20.67
2022-12-11T18:05:53.083Z,21.47
2022-12-11T18:08:25.122Z,18.90
2022-12-11T18:10:53.931Z,18.53
2022-12-11T18:13:24.621Z,20.80
2022-12-11T18:16:01.573Z,20.07
2022-12-11T18:18:29.593Z,18.93
2022-12-11T18:20:57.868Z,21.07
2022-12-11T18:23:26.163Z,22.27
2022-12-11T18:25:54.732Z,23.97
2022-12-11T18:28:24.229Z,21.20
2022-12-11T18:30:52.311Z,21.20
2022-12-11T18:33:20.741Z,20.13
2022-12-11T18:35:50.261Z,21.87
2022-12-11T18:38:18.936Z,19.57
2022-12-11T18:40:46.825Z,21.00
2022-12-11T18:43:14.876Z,20.10
2022-12-11T18:45:45.799Z,22.03
2022-12-11T18:48:14.058Z,21.50
2022-12-11T18:50:45.936Z,22.07
2022-12-11T18:53:14.973Z,25.83
2022-12-11T18:55:44.356Z,23.27
2022-12-11T18:58:13.418Z,21.57
2022-12-11T19:00:42.545Z,18.50
2022-12-11T19:03:13.854Z,19.43
2022-12-11T19:05:43.892Z,18.90
2022-12-11T19:08:13.899Z,23.73
2022-12-11T19:10:43.597Z,21.10
2022-12-11T19:13:11.912Z,20.77
2022-12-11T19:15:41.297Z,21.00
2022-12-11T19:18:09.870Z,22.03
2022-12-11T19:20:49.800Z,21.23
2022-12-11T19:23:20.920Z,22.20
2022-12-11T19:25:50.625Z,20.63
2022-12-11T19:28:18.992Z,23.93
2022-12-11T19:30:49.251Z,24.43
2022-12-11T19:33:17.615Z,24.13
2022-12-11T19:35:46.766Z,22.83
2022-12-11T19:38:14.949Z,22.90
2022-12-11T19:40:43.106Z,26.80
2022-12-11T19:43:12.063Z,26.07
2022-12-11T19:45:41.425Z,24.27
2022-12-11T19:48:09.487Z,26.13
2022-12-11T19:50:37.610Z,24.07
2022-12-11T19:53:07.185Z,25.37
2022-12-11T19:55:35.118Z,26.77
2022-12-11T19:58:03.154Z,25.80
2022-12-11T20:00:31.031Z,24.83
2022-12-11T20:02:59.033Z,25.97
2022-12-11T20:05:26.910Z,27.97
2022-12-11T20:07:54.993Z,25.10
2022-12-11T20:10:24.546Z,28.70
2022-12-11T20:12:56.492Z,28.27
2022-12-11T20:15:24.946Z,26.73
2022-12-11T20:17:53.772Z,25.93
2022-12-11T20:20:22.137Z,22.73
2022-12-11T20:22:52.961Z,23.60
2022-12-11T20:25:20.940Z,20.53
2022-12-11T20:27:50.822Z,22.77
2022-12-11T20:30:19.928Z,17.90
2022-12-11T20:32:47.833Z,22.17
2022-12-11T20:35:15.758Z,21.63
2022-12-11T20:37:43.896Z,21.80
2022-12-11T20:40:13.203Z,23.10
2022-12-11T20:42:41.534Z,23.47
2022-12-11T20:45:12.075Z,23.87
2022-12-11T20:47:40.269Z,23.97
2022-12-11T20:50:09.076Z,23.97
2022-12-11T20:52:37.330Z,24.90
2022-12-11T20:55:07.503Z,20.83
2022-12-11T20:57:38.241Z,23.03
2022-12-11T21:00:13.231Z,22.47
2022-12-11T21:02:41.060Z,23.83
2022-12-11T21:05:09.901Z,21.80
2022-12-11T21:07:38.001Z,24.83
2022-12-11T21:10:06.573Z,23.60
2022-12-11T21:12:34.395Z,25.07
2022-12-11T21:15:02.450Z,26.00
2022-12-11T21:17:31.920Z,27.20
2022-12-11T21:19:59.934Z,23.03
2022-12-11T21:22:27.947Z,27.00
2022-12-11T21:24:55.861Z,22.93
2022-12-11T21:27:24.566Z,23.17
2022-12-11T21:29:54.013Z,24.57
2022-12-11T21:32:21.921Z,23.17
2022-12-11T21:34:52.137Z,22.23
2022-12-11T21:37:20.116Z,22.53
2022-12-11T21:39:47.974Z,24.07
2022-12-11T21:42:16.161Z,23.23
2022-12-11T21:47:31.618Z,24.37
2022-12-11T21:50:01.735Z,26.80
2022-12-11T21:52:29.912Z,22.37
2022-12-11T21:54:57.674Z,23.13
2022-12-11T21:57:26.748Z,23.07
2022-12-11T21:59:54.687Z,24.63
2022-12-11T22:02:22.611Z,24.40
2022-12-11T22:04:50.373Z,22.43
2022-12-11T22:07:19.403Z,25.70
2022-12-11T22:09:47.425Z,24.83
2022-12-11T22:12:22.145Z,24.17
2022-12-11T22:14:50.130Z,24.37
2022-12-11T22:17:18.791Z,24.57
2022-12-11T22:19:46.459Z,25.43
2022-12-11T22:22:15.077Z,24.40
2022-12-11T22:24:44.087Z,24.70
2022-12-11T22:27:12.066Z,24.50
2022-12-11T22:29:39.726Z,26.40
2022-12-11T22:32:07.466Z,23.87
2022-12-11T22:34:35.152Z,23.40
2022-12-11T22:37:02.806Z,24.33
2022-12-11T22:39:30.426Z,26.23
2022-12-11T22:42:00.119Z,25.80
2022-12-11T22:44:27.783Z,24.27
2022-12-11T22:46:55.435Z,26.17
2022-12-11T22:49:23.107Z,26.07
2022-12-11T22:51:50.753Z,26.03
2022-12-11T22:54:18.461Z,26.23
2022-12-11T22:56:46.159Z,26.07
2022-12-11T22:59:15.456Z,26.50
2022-12-11T23:01:43.177Z,26.13
2022-12-11T23:04:10.862Z,24.73
2022-12-11T23:06:38.916Z,26.53
2022-12-11T23:09:07.256Z,27.70
2022-12-11T23:11:37.846Z,26.73
2022-12-11T23:14:07.189Z,27.27
2022-12-11T23:16:36.318Z,27.67
2022-12-11T23:19:04.598Z,26.13
2022-12-11T23:21:32.287Z,27.50
2022-12-11T23:24:00.387Z,29.20
2022-12-11T23:26:29.444Z,27.97
2022-12-11T23:28:58.507Z,26.97
2022-12-11T23:31:27.753Z,28.23
2022-12-11T23:33:57.528Z,26.63
2022-12-11T23:36:26.684Z,26.20
2022-12-11T23:38:55.370Z,25.80
2022-12-11T23:41:23.834Z,27.40
2022-12-11T23:43:51.644Z,25.40
2022-12-11T23:46:21.704Z,26.67
2022-12-11T23:48:50.278Z,25.57
2022-12-11T23:51:21.299Z,26.93
2022-12-11T23:53:49.025Z,25.30
2022-12-11T23:56:18.910Z,26.77
2022-12-11T23:58:46.754Z,27.47
